createdAt,value
2018-03-30T00:02:00.412Z,84.80
2018-03-30T00:04:01.390Z,84.80
2018-03-30T00:06:02.359Z,85.30
2018-03-30T00:08:03.389Z,85.50
2018-03-30T00:10:04.372Z,85.30
2018-03-30T00:12:05.741Z,85.10
2018-03-30T00:14:07.009Z,85.20
2018-03-30T00:16:08.004Z,85.30
2018-03-30T00:18:08.992Z,85.70
2018-03-30T00:20:10.001Z,85.80
2018-03-30T00:22:10.975Z,85.60
2018-03-30T00:24:11.939Z,85.60
2018-03-30T00:26:13.201Z,85.40
2018-03-30T00:28:14.187Z,85.20
2018-03-30T00:30:15.139Z,85.50
2018-03-30T00:32:16.504Z,85.60
2018-03-30T00:34:17.508Z,85.60
2018-03-30T00:36:18.874Z,86.30
2018-03-30T00:38:19.856Z,86.30
2018-03-30T00:40:20.872Z,86.90
2018-03-30T00:42:21.840Z,86.90
2018-03-30T00:44:23.052Z,86.80
2018-03-30T00:46:24.052Z,86.60
2018-03-30T00:48:25.032Z,86.40
2018-03-30T00:50:26.028Z,86.20
2018-03-30T00:52:27.019Z,86.40
2018-03-30T00:54:28.016Z,87.80
2018-03-30T00:56:29.024Z,88.30
2018-03-30T00:58:30.395Z,88.30
2018-03-30T01:00:31.388Z,88.30
2018-03-30T01:02:32.792Z,88.00
2018-03-30T01:04:34.157Z,88.00
2018-03-30T01:06:35.160Z,87.90
2018-03-30T01:08:36.139Z,88.00
2018-03-30T01:10:37.785Z,87.80
2018-03-30T01:12:38.796Z,87.80
2018-03-30T01:14:39.774Z,87.90
2018-03-30T01:16:41.172Z,87.30
2018-03-30T01:18:42.155Z,87.30
2018-03-30T01:20:43.504Z,88.00
2018-03-30T01:22:44.787Z,88.00
2018-03-30T01:24:45.791Z,88.10
2018-03-30T01:26:46.763Z,88.10
2018-03-30T01:28:47.745Z,88.10
2018-03-30T01:30:49.245Z,87.60
2018-03-30T01:32:50.249Z,87.50
2018-03-30T01:34:51.262Z,87.70
2018-03-30T01:36:52.614Z,87.00
2018-03-30T01:38:53.579Z,87.00
2018-03-30T01:40:54.565Z,87.00
2018-03-30T01:42:55.960Z,87.60
2018-03-30T01:44:56.957Z,87.60
2018-03-30T01:46:57.964Z,87.60
2018-03-30T01:48:58.964Z,87.50
2018-03-30T01:50:59.958Z,87.40
2018-03-30T01:53:01.327Z,87.50
2018-03-30T01:55:09.162Z,87.50
2018-03-30T01:57:10.173Z,87.60
2018-03-30T01:59:11.192Z,87.40
2018-03-30T02:01:12.197Z,87.80
2018-03-30T02:03:13.564Z,87.50
2018-03-30T02:05:14.576Z,87.50
2018-03-30T02:07:15.939Z,87.50
2018-03-30T02:09:17.088Z,87.50
2018-03-30T02:11:18.100Z,88.00
2018-03-30T02:13:19.463Z,87.90
2018-03-30T02:15:20.497Z,87.90
2018-03-30T02:17:21.489Z,87.80
2018-03-30T02:19:22.489Z,87.70
2018-03-30T02:21:23.643Z,87.70
2018-03-30T02:23:24.629Z,87.60
2018-03-30T02:25:26.012Z,87.30
2018-03-30T02:27:27.104Z,87.30
2018-03-30T02:29:28.449Z,87.20
2018-03-30T02:31:29.792Z,86.60
2018-03-30T02:33:31.306Z,87.40
2018-03-30T02:35:32.537Z,87.40
2018-03-30T02:37:33.517Z,88.70
2018-03-30T02:39:34.900Z,88.50
2018-03-30T02:41:35.896Z,88.50
2018-03-30T02:43:37.300Z,89.30
2018-03-30T02:45:38.284Z,89.30
2018-03-30T02:47:39.297Z,89.20
2018-03-30T02:49:40.644Z,89.00
2018-03-30T02:51:42.000Z,89.00
2018-03-30T02:53:43.404Z,88.60
2018-03-30T02:55:44.393Z,88.60
2018-03-30T02:57:45.378Z,88.30
2018-03-30T02:59:46.366Z,88.20
2018-03-30T03:01:47.347Z,88.70
2018-03-30T03:03:48.349Z,88.00
2018-03-30T03:05:49.346Z,86.90
2018-03-30T03:07:50.700Z,87.20
2018-03-30T03:09:52.079Z,87.20
2018-03-30T03:11:53.079Z,87.20
2018-03-30T03:13:54.444Z,88.40
2018-03-30T03:15:55.462Z,88.40
2018-03-30T03:17:56.468Z,87.90
2018-03-30T03:19:57.430Z,87.90
2018-03-30T03:21:58.420Z,88.00
2018-03-30T03:23:59.389Z,88.20
2018-03-30T03:26:00.740Z,87.30
2018-03-30T03:28:01.733Z,87.30
2018-03-30T03:30:02.713Z,87.00
2018-03-30T03:32:03.869Z,87.40
2018-03-30T03:34:04.872Z,87.50
2018-03-30T03:36:06.244Z,87.20
2018-03-30T03:38:07.228Z,87.20
2018-03-30T03:40:08.216Z,87.20
2018-03-30T03:42:09.215Z,87.70
2018-03-30T03:44:10.568Z,88.00
2018-03-30T03:46:12.147Z,88.20
2018-03-30T03:48:13.111Z,88.20
2018-03-30T03:50:14.121Z,87.80
2018-03-30T03:52:15.129Z,87.50
2018-03-30T03:54:16.476Z,87.50
2018-03-30T03:56:17.452Z,87.50
2018-03-30T03:58:18.532Z,87.50
2018-03-30T04:00:19.887Z,88.80
2018-03-30T04:02:20.872Z,88.80
2018-03-30T04:04:21.889Z,89.10
2018-03-30T04:06:22.892Z,89.30
2018-03-30T04:08:24.265Z,89.60
2018-03-30T04:10:25.284Z,89.60
2018-03-30T04:12:26.232Z,89.70
2018-03-30T04:14:27.216Z,90.10
2018-03-30T04:16:28.216Z,90.40
2018-03-30T04:18:29.193Z,90.30
2018-03-30T04:20:30.208Z,90.80
2018-03-30T04:22:31.221Z,90.30
2018-03-30T04:24:32.210Z,90.30
2018-03-30T04:26:33.635Z,90.60
2018-03-30T04:28:34.611Z,90.60
2018-03-30T04:30:35.630Z,90.50
2018-03-30T04:32:36.995Z,90.40
2018-03-30T04:34:37.980Z,90.40
2018-03-30T04:36:38.977Z,90.40
2018-03-30T04:38:39.986Z,89.90
2018-03-30T04:40:40.933Z,89.10
2018-03-30T04:42:41.930Z,89.40
2018-03-30T04:44:43.267Z,90.10
2018-03-30T04:46:44.277Z,90.10
2018-03-30T04:48:45.264Z,89.70
2018-03-30T04:50:46.615Z,90.40
2018-03-30T04:52:47.608Z,90.40
2018-03-30T04:54:48.610Z,90.70
2018-03-30T04:56:49.596Z,90.50
2018-03-30T04:58:50.955Z,90.40
2018-03-30T05:00:52.311Z,90.40
2018-03-30T05:02:53.304Z,90.40
2018-03-30T05:04:54.327Z,90.70
2018-03-30T05:06:55.517Z,90.60
2018-03-30T05:08:56.699Z,90.50
2018-03-30T05:10:57.688Z,90.50
2018-03-30T05:12:58.692Z,90.40
2018-03-30T05:14:59.696Z,90.30
2018-03-30T05:17:00.688Z,90.20
2018-03-30T05:19:02.072Z,90.00
2018-03-30T05:21:03.036Z,90.00
2018-03-30T05:23:04.048Z,89.80
2018-03-30T05:25:05.224Z,90.30
2018-03-30T05:27:06.567Z,90.30
2018-03-30T05:29:07.544Z,90.30
2018-03-30T05:31:08.552Z,90.50
2018-03-30T05:33:09.900Z,90.20
2018-03-30T05:35:11.255Z,90.00
2018-03-30T05:37:12.252Z,90.00
2018-03-30T05:39:13.260Z,90.00
2018-03-30T05:41:14.265Z,90.50
2018-03-30T05:43:15.257Z,90.10
2018-03-30T05:45:16.236Z,89.60
2018-03-30T05:47:17.188Z,89.30
2018-03-30T05:49:18.182Z,89.20
2018-03-30T05:51:19.559Z,89.30
2018-03-30T05:53:20.570Z,89.30
2018-03-30T05:55:21.560Z,89.60
2018-03-30T05:57:22.556Z,89.40
2018-03-30T05:59:23.712Z,89.60
2018-03-30T06:01:24.699Z,89.00
2018-03-30T06:03:26.060Z,88.70
2018-03-30T06:05:27.073Z,88.70
2018-03-30T06:07:28.428Z,88.90
2018-03-30T06:09:29.768Z,88.70
2018-03-30T06:11:31.264Z,89.20
2018-03-30T06:13:32.480Z,89.20
2018-03-30T06:15:33.468Z,89.10
2018-03-30T06:17:34.437Z,88.50
2018-03-30T06:19:35.449Z,87.70
2018-03-30T06:21:36.439Z,87.80
2018-03-30T06:23:37.421Z,87.50
2018-03-30T06:25:38.774Z,87.70
2018-03-30T06:27:40.164Z,87.60
2018-03-30T06:29:41.150Z,87.60
2018-03-30T06:31:42.572Z,87.40
2018-03-30T06:33:43.597Z,87.40
2018-03-30T06:35:44.590Z,86.10
2018-03-30T06:37:45.544Z,85.60
2018-03-30T06:39:46.629Z,85.80
2018-03-30T06:41:47.615Z,85.80
2018-03-30T06:43:48.589Z,86.40
2018-03-30T06:45:49.600Z,85.90
2018-03-30T06:47:50.871Z,86.00
2018-03-30T06:49:51.904Z,85.30
2018-03-30T06:51:52.861Z,85.20
2018-03-30T06:53:54.237Z,85.70
2018-03-30T06:55:55.231Z,85.70
2018-03-30T06:57:56.624Z,83.90
2018-03-30T06:59:57.757Z,83.90
2018-03-30T07:01:58.747Z,83.40
2018-03-30T07:03:59.752Z,83.00
2018-03-30T07:06:00.788Z,83.00
2018-03-30T07:08:01.788Z,82.70
2018-03-30T07:10:03.292Z,82.60
2018-03-30T07:12:04.267Z,82.50
2018-03-30T07:14:05.319Z,82.40
2018-03-30T07:16:06.349Z,82.20
2018-03-30T07:18:07.407Z,81.40
2018-03-30T07:20:08.399Z,81.00
2018-03-30T07:22:09.376Z,80.10
2018-03-30T07:24:10.358Z,81.10
2018-03-30T07:26:11.816Z,82.10
2018-03-30T07:28:13.568Z,82.10
2018-03-30T07:30:14.583Z,81.80
2018-03-30T07:32:16.455Z,80.20
2018-03-30T07:34:17.443Z,80.20
2018-03-30T07:36:18.445Z,80.50
2018-03-30T07:38:19.436Z,81.20
2018-03-30T07:40:20.457Z,81.10
2018-03-30T07:42:21.464Z,81.00
2018-03-30T07:44:22.469Z,81.40
2018-03-30T07:46:23.464Z,80.40
2018-03-30T07:48:24.451Z,79.50
2018-03-30T07:50:25.427Z,79.70
2018-03-30T07:52:26.462Z,77.30
2018-03-30T07:54:27.444Z,76.60
2018-03-30T07:56:28.468Z,77.40
2018-03-30T07:58:29.844Z,77.90
2018-03-30T08:00:30.834Z,77.90
2018-03-30T08:02:31.836Z,77.50
2018-03-30T08:04:32.831Z,77.00
2018-03-30T08:06:33.836Z,75.90
2018-03-30T08:08:34.864Z,75.00
2018-03-30T08:10:35.887Z,74.40
2018-03-30T08:12:36.889Z,74.30
2018-03-30T08:14:37.884Z,73.80
2018-03-30T08:16:39.272Z,74.70
2018-03-30T08:18:40.246Z,74.70
2018-03-30T08:20:41.260Z,75.60
2018-03-30T08:22:42.235Z,74.30
2018-03-30T08:24:43.585Z,75.10
2018-03-30T08:26:44.948Z,75.00
2018-03-30T08:28:45.960Z,75.00
2018-03-30T08:30:47.318Z,73.60
2018-03-30T08:32:48.681Z,73.70
2018-03-30T08:34:49.667Z,73.70
2018-03-30T08:36:50.664Z,74.00
2018-03-30T08:38:51.685Z,73.50
2018-03-30T08:40:52.695Z,74.90
2018-03-30T08:42:54.068Z,71.70
2018-03-30T08:44:55.044Z,71.70
2018-03-30T08:46:56.168Z,71.50
2018-03-30T08:48:57.211Z,71.20
2018-03-30T08:50:58.212Z,73.20
2018-03-30T08:52:59.248Z,72.00
2018-03-30T08:55:00.336Z,72.40
2018-03-30T08:57:01.295Z,72.60
2018-03-30T08:59:02.506Z,72.60
2018-03-30T09:01:03.517Z,72.30
2018-03-30T09:03:04.512Z,71.20
2018-03-30T09:05:05.515Z,71.20
2018-03-30T09:07:06.542Z,72.70
2018-03-30T09:09:07.552Z,71.20
2018-03-30T09:11:08.584Z,71.30
2018-03-30T09:13:09.604Z,70.90
2018-03-30T09:15:10.596Z,71.40
2018-03-30T09:17:11.587Z,70.70
2018-03-30T09:19:12.572Z,70.90
2018-03-30T09:21:14.036Z,70.90
2018-03-30T09:23:15.389Z,71.10
2018-03-30T09:25:16.347Z,71.10
2018-03-30T09:27:17.360Z,69.60
2018-03-30T09:29:18.527Z,68.90
2018-03-30T09:31:19.621Z,69.50
2018-03-30T09:33:26.716Z,68.30
2018-03-30T09:35:27.924Z,68.20
2018-03-30T09:37:29.285Z,70.40
2018-03-30T09:39:30.624Z,69.10
2018-03-30T09:41:32.008Z,68.50
2018-03-30T09:43:33.006Z,68.50
2018-03-30T09:45:34.343Z,67.20
2018-03-30T09:47:35.700Z,67.20
2018-03-30T09:49:36.712Z,67.20
2018-03-30T09:51:38.121Z,67.00
2018-03-30T09:53:39.136Z,67.00
2018-03-30T09:55:40.153Z,65.00
2018-03-30T09:57:41.148Z,66.90
2018-03-30T09:59:42.136Z,67.20
2018-03-30T10:01:43.136Z,67.10
2018-03-30T10:03:47.341Z,67.70
2018-03-30T10:05:48.777Z,68.20
2018-03-30T10:07:49.769Z,68.20
2018-03-30T10:09:50.752Z,67.30
2018-03-30T10:11:51.745Z,66.50
2018-03-30T10:13:52.741Z,67.80
2018-03-30T10:15:53.724Z,67.10
2018-03-30T10:17:54.969Z,65.90
2018-03-30T10:19:56.051Z,66.00
2018-03-30T10:21:57.440Z,63.70
2018-03-30T10:23:58.488Z,63.70
2018-03-30T10:25:59.476Z,61.70
2018-03-30T10:28:00.504Z,63.20
2018-03-30T10:30:01.864Z,64.50
2018-03-30T10:32:02.889Z,64.50
2018-03-30T10:34:03.895Z,64.50
2018-03-30T10:36:04.983Z,65.70
2018-03-30T10:38:06.124Z,65.50
2018-03-30T10:40:07.121Z,65.20
2018-03-30T10:42:08.481Z,65.50
2018-03-30T10:44:09.484Z,65.50
2018-03-30T10:46:10.508Z,64.50
2018-03-30T10:48:11.520Z,63.20
2018-03-30T10:50:12.509Z,62.50
2018-03-30T10:52:14.041Z,59.60
2018-03-30T10:54:15.415Z,59.30
2018-03-30T10:56:16.517Z,59.30
2018-03-30T10:58:17.509Z,60.20
2018-03-30T11:00:18.568Z,61.10
2018-03-30T11:02:19.556Z,59.50
2018-03-30T11:04:20.528Z,59.50
2018-03-30T11:06:21.524Z,59.50
2018-03-30T11:08:22.880Z,57.30
2018-03-30T11:12:36.485Z,57.90
2018-03-30T11:14:37.507Z,57.20
2018-03-30T11:16:38.499Z,56.50
2018-03-30T11:18:39.714Z,56.00
2018-03-30T11:20:41.068Z,57.50
2018-03-30T11:22:42.079Z,57.50
2018-03-30T11:24:43.085Z,57.20
2018-03-30T11:26:44.084Z,55.80
2018-03-30T11:28:45.071Z,53.20
2018-03-30T11:30:46.174Z,52.90
2018-03-30T11:32:47.150Z,54.40
2018-03-30T11:34:48.786Z,54.70
2018-03-30T11:36:49.776Z,55.80
2018-03-30T11:38:50.748Z,54.60
2018-03-30T11:40:51.768Z,53.90
2018-03-30T11:42:52.764Z,55.30
2018-03-30T11:44:54.112Z,54.20
2018-03-30T11:46:55.464Z,53.60
2018-03-30T11:48:56.455Z,53.60
2018-03-30T11:50:57.439Z,54.80
2018-03-30T11:52:58.412Z,55.00
2018-03-30T11:54:59.444Z,55.00
2018-03-30T11:57:00.420Z,54.40
2018-03-30T11:59:01.900Z,54.60
2018-03-30T12:01:03.189Z,54.60
2018-03-30T12:03:04.177Z,53.40
2018-03-30T12:05:05.196Z,51.90
2018-03-30T12:07:06.215Z,52.30
2018-03-30T12:09:07.565Z,51.90
2018-03-30T12:11:08.953Z,50.40
2018-03-30T12:13:10.020Z,50.30
2018-03-30T12:15:17.855Z,50.60
2018-03-30T12:17:18.841Z,49.20
2018-03-30T12:19:19.823Z,49.90
2018-03-30T12:21:20.821Z,48.70
2018-03-30T12:23:23.925Z,48.50
2018-03-30T12:25:25.294Z,47.20
2018-03-30T12:27:26.561Z,47.20
2018-03-30T12:29:27.545Z,49.30
2018-03-30T12:31:28.910Z,50.10
2018-03-30T12:33:29.902Z,50.10
2018-03-30T12:35:30.892Z,50.10
2018-03-30T12:37:31.877Z,51.50
2018-03-30T12:39:33.356Z,49.50
2018-03-30T12:41:34.320Z,50.70
2018-03-30T12:43:35.314Z,50.40
2018-03-30T12:45:37.047Z,49.40
2018-03-30T12:47:38.041Z,49.40
2018-03-30T12:49:39.201Z,49.80
2018-03-30T12:51:40.345Z,51.00
2018-03-30T12:53:41.337Z,49.00
2018-03-30T12:55:42.314Z,48.20
2018-03-30T12:57:43.319Z,48.20
2018-03-30T12:59:44.389Z,49.70
2018-03-30T13:01:45.377Z,49.00
2018-03-30T13:03:46.400Z,53.00
2018-03-30T13:05:47.412Z,51.10
2018-03-30T13:07:48.411Z,49.50
2018-03-30T13:09:49.509Z,49.80
2018-03-30T13:11:50.484Z,49.70
2018-03-30T13:13:51.460Z,47.70
2018-03-30T13:15:52.818Z,48.00
2018-03-30T13:17:54.184Z,47.60
2018-03-30T13:19:55.178Z,47.60
2018-03-30T13:21:56.564Z,47.20
2018-03-30T13:23:57.578Z,47.20
2018-03-30T13:25:58.565Z,46.40
2018-03-30T13:27:59.581Z,45.00
2018-03-30T13:30:00.580Z,47.50
2018-03-30T13:32:01.932Z,47.50
2018-03-30T13:34:02.927Z,47.50
2018-03-30T13:36:03.936Z,49.10
2018-03-30T13:38:04.944Z,50.90
2018-03-30T13:40:05.983Z,50.00
2018-03-30T13:42:06.980Z,51.80
2018-03-30T13:44:07.996Z,50.10
2018-03-30T13:46:08.980Z,49.60
2018-03-30T13:48:09.968Z,49.40
2018-03-30T13:50:10.997Z,46.50
2018-03-30T14:05:41.545Z,44.70
2018-03-30T14:10:13.045Z,44.70
2018-03-30T14:12:17.864Z,47.90
2018-03-30T14:14:18.875Z,48.40
2018-03-30T14:16:22.813Z,47.10
2018-03-30T14:18:47.124Z,44.50
2018-03-30T14:20:48.976Z,44.80
2018-03-30T14:23:01.959Z,45.20
2018-03-30T14:25:04.877Z,46.80
2018-03-30T14:27:10.235Z,46.10
2018-03-30T14:29:15.560Z,46.90
2018-03-30T14:31:29.419Z,46.90
2018-03-30T14:33:30.760Z,48.00
2018-03-30T14:35:38.596Z,48.00
2018-03-30T14:40:09.825Z,50.20
2018-03-30T14:42:11.749Z,50.80
2018-03-30T14:44:16.007Z,47.00
2018-03-30T14:46:24.092Z,47.00
2018-03-30T14:48:37.122Z,44.50
2018-03-30T14:50:39.172Z,44.80
2018-03-30T14:52:46.176Z,43.70
2018-03-30T14:54:47.418Z,46.60
2018-03-30T14:56:53.360Z,47.60
2018-03-30T14:59:00.391Z,45.50
2018-03-30T15:03:30.724Z,46.20
2018-03-30T15:05:48.916Z,45.10
2018-03-30T15:07:55.844Z,45.10
2018-03-30T15:10:05.119Z,43.70
2018-03-30T15:12:14.026Z,42.90
2018-03-30T15:14:25.883Z,44.50
2018-03-30T15:16:32.269Z,46.80
2018-03-30T15:18:39.206Z,46.80
2018-03-30T15:20:46.492Z,46.80
2018-03-30T16:18:58.714Z,60.50
2018-03-30T16:20:59.557Z,61.90
2018-03-30T16:23:00.798Z,62.90
2018-03-30T16:25:01.719Z,62.90
2018-03-30T16:27:02.955Z,62.20
2018-03-30T16:29:04.200Z,62.40
2018-03-30T16:31:05.637Z,62.40
2018-03-30T16:33:06.972Z,62.40
2018-03-30T16:35:07.873Z,62.40
2018-03-30T16:37:08.785Z,62.30
2018-03-30T16:39:09.636Z,62.50
2018-03-30T16:41:10.497Z,62.60
2018-03-30T16:43:11.366Z,63.40
2018-03-30T16:45:12.572Z,63.50
2018-03-30T16:47:13.473Z,63.60
2018-03-30T16:49:14.338Z,63.80
2018-03-30T16:51:15.249Z,64.80
2018-03-30T16:53:16.128Z,64.70
2018-03-30T16:55:18.209Z,64.30
2018-03-30T16:57:19.059Z,64.20
2018-03-30T16:59:19.932Z,64.60
2018-03-30T17:01:20.817Z,65.10
2018-03-30T17:03:21.684Z,65.50
2018-03-30T17:05:22.585Z,65.20
2018-03-30T17:07:23.448Z,65.80
2018-03-30T17:09:24.300Z,66.30
2018-03-30T17:11:25.161Z,66.80
2018-03-30T17:13:26.112Z,66.20
2018-03-30T17:15:26.977Z,66.60
2018-03-30T17:17:27.822Z,66.70
2018-03-30T17:19:28.688Z,68.00
2018-03-30T17:21:31.429Z,68.80
2018-03-30T17:23:33.968Z,68.70
2018-03-30T17:25:34.859Z,69.20
2018-03-30T17:27:36.054Z,69.40
2018-03-30T17:29:36.901Z,69.40
2018-03-30T17:31:37.748Z,69.60
2018-03-30T17:33:38.589Z,70.10
2018-03-30T17:35:39.789Z,70.30
2018-03-30T17:37:41.039Z,70.30
2018-03-30T17:39:41.953Z,70.50
2018-03-30T17:41:42.793Z,70.50
2018-03-30T17:43:43.951Z,70.80
2018-03-30T17:45:44.784Z,70.80
2018-03-30T17:47:45.626Z,71.30
2018-03-30T17:49:46.484Z,71.50
2018-03-30T17:51:47.332Z,71.70
2018-03-30T17:53:48.165Z,71.70
2018-03-30T17:55:49.029Z,71.60
2018-03-30T17:57:49.855Z,72.40
2018-03-30T17:59:50.700Z,72.50
2018-03-30T18:01:51.732Z,72.90
2018-03-30T18:03:52.560Z,73.30
2018-03-30T18:05:53.391Z,73.90
2018-03-30T18:07:54.224Z,73.60
2018-03-30T18:09:55.226Z,73.40
2018-03-30T18:11:56.048Z,73.80
2018-03-30T18:13:56.881Z,74.30
2018-03-30T18:15:57.752Z,74.20
2018-03-30T18:17:58.592Z,74.10
2018-03-30T18:19:59.420Z,74.30
2018-03-30T18:22:00.260Z,74.10
2018-03-30T18:24:01.113Z,74.30
2018-03-30T18:26:02.322Z,74.80
2018-03-30T18:28:03.156Z,74.80
2018-03-30T18:30:03.983Z,74.60
2018-03-30T18:32:04.808Z,74.40
2018-03-30T18:34:05.650Z,74.70
2018-03-30T18:36:06.483Z,74.50
2018-03-30T18:38:07.313Z,74.50
2018-03-30T18:40:08.160Z,74.70
2018-03-30T18:42:08.984Z,74.50
2018-03-30T18:44:09.812Z,74.30
2018-03-30T18:46:10.663Z,74.20
2018-03-30T18:48:11.866Z,74.80
2018-03-30T18:50:12.703Z,74.80
2018-03-30T18:52:13.572Z,75.00
2018-03-30T18:54:14.781Z,75.10
2018-03-30T18:56:15.662Z,75.10
2018-03-30T18:58:16.498Z,75.30
2018-03-30T19:00:17.325Z,75.20
2018-03-30T19:02:18.179Z,75.10
2018-03-30T19:04:19.024Z,75.60
2018-03-30T19:06:19.852Z,76.30
2018-03-30T19:08:20.708Z,76.30
2018-03-30T19:10:21.537Z,76.60
2018-03-30T19:12:22.363Z,77.00
2018-03-30T19:14:23.210Z,76.70
2018-03-30T19:16:24.036Z,76.50
2018-03-30T19:18:24.892Z,76.70
2018-03-30T19:20:26.107Z,77.50
2018-03-30T19:22:26.964Z,77.50
2018-03-30T19:24:28.183Z,76.70
2018-03-30T19:26:29.399Z,77.00
2018-03-30T19:28:30.228Z,77.00
2018-03-30T19:30:31.068Z,76.70
2018-03-30T19:32:32.238Z,76.60
2018-03-30T19:34:33.448Z,76.70
2018-03-30T19:36:34.299Z,76.70
2018-03-30T19:38:35.136Z,76.70
2018-03-30T19:40:36.341Z,76.50
2018-03-30T19:42:37.247Z,76.50
2018-03-30T19:44:38.092Z,76.30
2018-03-30T19:46:38.924Z,76.10
2018-03-30T19:48:39.768Z,75.90
2018-03-30T19:50:40.760Z,76.10
2018-03-30T19:52:41.580Z,76.10
2018-03-30T19:54:42.805Z,76.10
2018-03-30T19:56:43.623Z,76.10
2018-03-30T19:58:44.456Z,76.40
2018-03-30T20:00:45.301Z,76.30
2018-03-30T20:02:46.124Z,76.00
2018-03-30T20:04:46.948Z,75.60
2018-03-30T20:06:47.785Z,75.40
2018-03-30T20:08:48.644Z,75.60
2018-03-30T20:10:49.847Z,75.60
2018-03-30T20:12:50.680Z,75.60
2018-03-30T20:14:51.504Z,76.00
2018-03-30T20:16:52.639Z,75.70
2018-03-30T20:18:53.477Z,75.40
2018-03-30T20:20:54.345Z,76.00
2018-03-30T20:22:55.583Z,75.90
2018-03-30T20:24:56.808Z,76.10
2018-03-30T20:26:57.900Z,76.10
2018-03-30T20:28:58.751Z,76.00
2018-03-30T20:30:59.596Z,76.00
2018-03-30T20:33:00.433Z,76.50
2018-03-30T20:35:01.293Z,76.40
2018-03-30T20:37:02.587Z,75.90
2018-03-30T20:39:03.471Z,75.90
2018-03-30T20:41:04.304Z,76.10
2018-03-30T20:43:05.131Z,75.80
2018-03-30T20:45:05.968Z,76.10
2018-03-30T20:47:06.816Z,76.70
2018-03-30T20:49:07.640Z,76.00
2018-03-30T20:51:08.459Z,75.50
2018-03-30T20:53:09.613Z,75.60
2018-03-30T20:55:10.436Z,75.30
2018-03-30T20:57:11.264Z,75.80
2018-03-30T20:59:12.105Z,75.80
2018-03-30T21:01:12.995Z,76.10
2018-03-30T21:03:13.832Z,75.70
2018-03-30T21:05:15.045Z,75.90
2018-03-30T21:07:16.100Z,75.90
2018-03-30T21:09:16.964Z,75.60
2018-03-30T21:11:18.314Z,76.10
2018-03-30T21:13:19.145Z,76.10
2018-03-30T21:15:19.982Z,75.80
2018-03-30T21:17:20.824Z,76.00
2018-03-30T21:19:21.658Z,75.80
2018-03-30T21:21:22.729Z,76.50
2018-03-30T21:23:23.864Z,76.10
2018-03-30T21:25:24.695Z,76.50
2018-03-30T21:27:25.536Z,76.40
2018-03-30T21:29:26.394Z,76.30
2018-03-30T21:31:27.596Z,76.20
2018-03-30T21:33:28.448Z,76.20
2018-03-30T21:35:29.380Z,76.20
2018-03-30T21:37:30.242Z,76.70
2018-03-30T21:39:31.436Z,76.90
2018-03-30T21:41:32.285Z,76.90
2018-03-30T21:43:33.103Z,76.50
2018-03-30T21:45:34.084Z,76.90
2018-03-30T21:47:35.281Z,76.90
2018-03-30T21:49:36.124Z,77.10
2018-03-30T21:51:36.944Z,77.00
2018-03-30T21:53:38.067Z,77.00
2018-03-30T21:55:39.287Z,77.10
2018-03-30T21:57:40.119Z,77.10
2018-03-30T21:59:41.052Z,77.70
2018-03-30T22:01:41.932Z,77.40
2018-03-30T22:03:42.737Z,77.00
2018-03-30T22:05:43.584Z,77.20
2018-03-30T22:07:44.421Z,77.60
2018-03-30T22:09:45.276Z,77.80
2018-03-30T22:11:46.492Z,77.50
2018-03-30T22:13:47.344Z,77.50
2018-03-30T22:15:48.537Z,78.40
2018-03-30T22:17:49.371Z,78.40
2018-03-30T22:19:50.192Z,78.10
2018-03-30T22:21:51.460Z,78.60
2018-03-30T22:23:52.358Z,78.70
2018-03-30T22:25:53.209Z,78.90
2018-03-30T22:27:54.189Z,79.00
2018-03-30T22:29:55.421Z,79.10
2018-03-30T22:31:56.656Z,78.90
2018-03-30T22:33:57.880Z,79.30
2018-03-30T22:35:58.720Z,79.30
2018-03-30T22:37:59.539Z,79.10
2018-03-30T22:40:00.404Z,79.10
2018-03-30T22:42:01.604Z,79.70
2018-03-30T22:44:02.439Z,79.70
2018-03-30T22:46:03.284Z,79.90
2018-03-30T22:48:04.112Z,79.50
2018-03-30T22:50:04.938Z,79.60
2018-03-30T22:52:05.776Z,80.10
2018-03-30T22:54:06.612Z,79.90
2018-03-30T22:56:07.439Z,79.70
2018-03-30T22:58:08.276Z,80.90
2018-03-30T23:00:09.131Z,80.70
2018-03-30T23:02:10.316Z,80.50
2018-03-30T23:04:11.147Z,80.50
2018-03-30T23:06:11.975Z,80.20
2018-03-30T23:08:13.241Z,79.80
2018-03-30T23:10:14.067Z,79.80
2018-03-30T23:12:14.940Z,80.20
2018-03-30T23:14:16.207Z,80.20
2018-03-30T23:16:17.045Z,80.20
2018-03-30T23:18:17.874Z,80.30
2018-03-30T23:20:18.728Z,80.20
2018-03-30T23:22:19.552Z,80.50
2018-03-30T23:24:20.432Z,80.80
2018-03-30T23:26:21.656Z,81.00
2018-03-30T23:28:22.843Z,81.20
2018-03-30T23:30:23.668Z,81.20
2018-03-30T23:32:24.496Z,80.90
2018-03-30T23:34:25.324Z,80.90
2018-03-30T23:36:26.154Z,80.80
2018-03-30T23:38:27.010Z,80.90
2018-03-30T23:40:27.835Z,80.90
2018-03-30T23:42:28.652Z,81.10
2018-03-30T23:44:29.523Z,81.00
2018-03-30T23:46:30.348Z,81.20
2018-03-30T23:48:31.176Z,81.10
2018-03-30T23:50:32.139Z,80.80
2018-03-30T23:52:32.964Z,80.90
2018-03-30T23:54:33.807Z,80.50
2018-03-30T23:56:34.671Z,80.30
2018-03-30T23:58:35.524Z,80.50
